PWSweather.com
Personal Weather Stations
Station Observations
KTXDECATUR
Wildwood, Decatur, TX 76234

WildwoodDecatur, TX 76234

Lat: 33.2634, Lon: -97.6651

Elevation: 800

Station Type: Davis Vantage Pro 2

http://weather.wildwoodnaturist.com

Latest ConditionsUpdated 7:15:01 AM CDT Thursday, Jun 29, 2017
Currently Today's Max Today's Min Today's Average
Temperature 73.8°F23.2°C 78.0°F25.6°C 73.7°F23.2°C 75.6°F24.2°C
Dew Point 71.7°F22.1°C 71.7°F22.1°C 70.8°F21.6°C 71.2°F21.8°C
Winds 4.6 mph S7.4 kmh S 10.4 mph SSE16.7 kmh SSE - 4.6 mph 7.4 kmh
Wind Gusts 5.8 mph9.3 kmh 17.3 mph27.8 kmh - -
Humidity 93% 93% 80% 86%
Pressure 29.79 in1008.8 mb 29.79 in1008.8 mb 29.75 in1007.5 mb -
Hour Temp Dew Point Humidity Winds Wind Gusts Pressure Precip Precip Rate Daily Precip Total
07:15 AM 73.8°F23.2°C 71.7°F22.1°C 93% 4.6 mph S7.4 kmh S 5.8 mph9.3 kmh 29.79 in1008.8 mb - 0.00 in0.0 mm 0.00 in0.0 mm
07:10 AM 73.8°F23.2°C 71.6°F22.0°C 93% 3.5 mph SSE5.6 kmh SSE 4.6 mph7.4 kmh 29.79 in1008.8 mb - 0.00 in0.0 mm 0.00 in0.0 mm
07:00 AM 73.7°F23.2°C 71.6°F22.0°C 93% 3.5 mph S5.6 kmh S 5.8 mph9.3 kmh 29.79 in1008.8 mb - 0.00 in0.0 mm 0.00 in0.0 mm
06:50 AM 73.7°F23.2°C 71.2°F21.8°C 92% 2.3 mph S3.7 kmh S 2.3 mph3.7 kmh 29.78 in1008.5 mb - 0.00 in0.0 mm 0.00 in0.0 mm
06:45 AM 73.7°F23.2°C 71.3°F21.8°C 92% 2.3 mph S3.7 kmh S 5.8 mph9.3 kmh 29.78 in1008.5 mb - 0.00 in0.0 mm 0.00 in0.0 mm
06:40 AM 73.8°F23.2°C 71.3°F21.8°C 92% 3.5 mph SSE5.6 kmh SSE 8.1 mph13.0 kmh 29.78 in1008.5 mb - 0.00 in0.0 mm 0.00 in0.0 mm
06:30 AM 73.9°F23.3°C 71.1°F21.7°C 91% 2.3 mph S3.7 kmh S 4.6 mph7.4 kmh 29.78 in1008.5 mb - 0.00 in0.0 mm 0.00 in0.0 mm
06:20 AM 74.0°F23.3°C 71.2°F21.8°C 91% 6.9 mph S11.1 kmh S 9.2 mph14.8 kmh 29.79 in1008.8 mb - 0.00 in0.0 mm 0.00 in0.0 mm
06:15 AM 74.1°F23.4°C 71.3°F21.8°C 91% 4.6 mph SSE7.4 kmh SSE 6.9 mph11.1 kmh 29.79 in1008.8 mb - 0.00 in0.0 mm 0.00 in0.0 mm
06:10 AM 74.1°F23.4°C 71.3°F21.8°C 91% 5.8 mph S9.3 kmh S 9.2 mph14.8 kmh 29.78 in1008.5 mb - 0.00 in0.0 mm 0.00 in0.0 mm
06:00 AM 74.2°F23.4°C 71.1°F21.7°C 90% 5.8 mph S9.3 kmh S 10.4 mph16.7 kmh 29.78 in1008.5 mb - 0.00 in0.0 mm 0.00 in0.0 mm
05:50 AM 74.3°F23.5°C 71.2°F21.8°C 90% 3.5 mph S5.6 kmh S 9.2 mph14.8 kmh 29.78 in1008.5 mb - 0.00 in0.0 mm 0.00 in0.0 mm
05:45 AM 74.4°F23.6°C 71.3°F21.8°C 90% 3.5 mph S5.6 kmh S 8.1 mph13.0 kmh 29.78 in1008.5 mb - 0.00 in0.0 mm 0.00 in0.0 mm
05:40 AM 74.5°F23.6°C 71.4°F21.9°C 90% 6.9 mph S11.1 kmh S 9.2 mph14.8 kmh 29.77 in1008.1 mb - 0.00 in0.0 mm 0.00 in0.0 mm
05:30 AM 74.6°F23.7°C 71.1°F21.7°C 89% 5.8 mph S9.3 kmh S 12.7 mph20.4 kmh 29.77 in1008.1 mb - 0.00 in0.0 mm 0.00 in0.0 mm
05:20 AM 74.8°F23.8°C 71.3°F21.8°C 89% 6.9 mph SSE11.1 kmh SSE 11.5 mph18.5 kmh 29.76 in1007.8 mb - 0.00 in0.0 mm 0.00 in0.0 mm
05:15 AM 74.8°F23.8°C 71.3°F21.8°C 89% 8.1 mph SSE13.0 kmh SSE 9.2 mph14.8 kmh 29.76 in1007.8 mb - 0.00 in0.0 mm 0.00 in0.0 mm
05:10 AM 74.9°F23.8°C 71.1°F21.7°C 88% 5.8 mph S9.3 kmh S 8.1 mph13.0 kmh 29.76 in1007.8 mb - 0.00 in0.0 mm 0.00 in0.0 mm
05:00 AM 75.0°F23.9°C 71.2°F21.8°C 88% 6.9 mph S11.1 kmh S 11.5 mph18.5 kmh 29.76 in1007.8 mb - 0.00 in0.0 mm 0.00 in0.0 mm
04:50 AM 75.1°F23.9°C 71.0°F21.7°C 87% 9.2 mph S14.8 kmh S 17.3 mph27.8 kmh 29.76 in1007.8 mb - 0.00 in0.0 mm 0.00 in0.0 mm
04:45 AM 75.2°F24.0°C 71.1°F21.7°C 87% 6.9 mph S11.1 kmh S 12.7 mph20.4 kmh 29.76 in1007.8 mb - 0.00 in0.0 mm 0.00 in0.0 mm
04:40 AM 75.3°F24.1°C 71.2°F21.8°C 87% 5.8 mph S9.3 kmh S 12.7 mph20.4 kmh 29.76 in1007.8 mb - 0.00 in0.0 mm 0.00 in0.0 mm
04:30 AM 75.3°F24.1°C 71.2°F21.8°C 87% 6.9 mph SSE11.1 kmh SSE 11.5 mph18.5 kmh 29.76 in1007.8 mb - 0.00 in0.0 mm 0.00 in0.0 mm
04:20 AM 75.4°F24.1°C 71.3°F21.8°C 87% 10.4 mph SSE16.7 kmh SSE 11.5 mph18.5 kmh 29.75 in1007.5 mb - 0.00 in0.0 mm 0.00 in0.0 mm
04:15 AM 75.4°F24.1°C 71.3°F21.8°C 87% 3.5 mph S5.6 kmh S 9.2 mph14.8 kmh 29.75 in1007.5 mb - 0.00 in0.0 mm 0.00 in0.0 mm
04:10 AM 75.4°F24.1°C 71.3°F21.8°C 87% 4.6 mph S7.4 kmh S 6.9 mph11.1 kmh 29.75 in1007.5 mb - 0.00 in0.0 mm 0.00 in0.0 mm
04:00 AM 75.3°F24.1°C 71.2°F21.8°C 87% 6.9 mph S11.1 kmh S 11.5 mph18.5 kmh 29.75 in1007.5 mb - 0.00 in0.0 mm 0.00 in0.0 mm
03:50 AM 75.2°F24.0°C 71.1°F21.7°C 87% 3.5 mph SSE5.6 kmh SSE 8.1 mph13.0 kmh 29.75 in1007.5 mb - 0.00 in0.0 mm 0.00 in0.0 mm
03:45 AM 75.3°F24.1°C 70.8°F21.6°C 86% 2.3 mph S3.7 kmh S 5.8 mph9.3 kmh 29.75 in1007.5 mb - 0.00 in0.0 mm 0.00 in0.0 mm
03:40 AM 75.3°F24.1°C 70.8°F21.6°C 86% 3.5 mph S5.6 kmh S 9.2 mph14.8 kmh 29.75 in1007.5 mb - 0.00 in0.0 mm 0.00 in0.0 mm
03:30 AM 75.5°F24.2°C 71.0°F21.7°C 86% 3.5 mph S5.6 kmh S 8.1 mph13.0 kmh 29.75 in1007.5 mb - 0.00 in0.0 mm 0.00 in0.0 mm
03:20 AM 75.6°F24.2°C 71.1°F21.7°C 86% 5.8 mph S9.3 kmh S 9.2 mph14.8 kmh 29.75 in1007.5 mb - 0.00 in0.0 mm 0.00 in0.0 mm
03:15 AM 75.7°F24.3°C 70.9°F21.6°C 85% 5.8 mph SSE9.3 kmh SSE 11.5 mph18.5 kmh 29.75 in1007.5 mb - 0.00 in0.0 mm 0.00 in0.0 mm
03:10 AM 75.7°F24.3°C 70.9°F21.6°C 85% 4.6 mph SSE7.4 kmh SSE 8.1 mph13.0 kmh 29.75 in1007.5 mb - 0.00 in0.0 mm 0.00 in0.0 mm
03:00 AM 75.8°F24.3°C 71.0°F21.7°C 85% 3.5 mph SSE5.6 kmh SSE 4.6 mph7.4 kmh 29.75 in1007.5 mb - 0.00 in0.0 mm 0.00 in0.0 mm
02:50 AM 76.0°F24.4°C 71.2°F21.8°C 85% 4.6 mph SSE7.4 kmh SSE 6.9 mph11.1 kmh 29.76 in1007.8 mb - 0.00 in0.0 mm 0.00 in0.0 mm
02:45 AM 76.1°F24.5°C 70.9°F21.6°C 84% 3.5 mph SSE5.6 kmh SSE 4.6 mph7.4 kmh 29.76 in1007.8 mb - 0.00 in0.0 mm 0.00 in0.0 mm
02:40 AM 76.1°F24.5°C 70.9°F21.6°C 84% 4.6 mph SSE7.4 kmh SSE 6.9 mph11.1 kmh 29.76 in1007.8 mb - 0.00 in0.0 mm 0.00 in0.0 mm
02:30 AM 76.2°F24.6°C 71.0°F21.7°C 84% 4.6 mph SSE7.4 kmh SSE 8.1 mph13.0 kmh 29.76 in1007.8 mb - 0.00 in0.0 mm 0.00 in0.0 mm
02:20 AM 76.3°F24.6°C 71.1°F21.7°C 84% 4.6 mph SSE7.4 kmh SSE 11.5 mph18.5 kmh 29.76 in1007.8 mb - 0.00 in0.0 mm 0.00 in0.0 mm
02:15 AM 76.3°F24.6°C 71.1°F21.7°C 84% 4.6 mph SSE7.4 kmh SSE 5.8 mph9.3 kmh 29.76 in1007.8 mb - 0.00 in0.0 mm 0.00 in0.0 mm
02:10 AM 76.3°F24.6°C 71.1°F21.7°C 84% 4.6 mph SSE7.4 kmh SSE 6.9 mph11.1 kmh 29.76 in1007.8 mb - 0.00 in0.0 mm 0.00 in0.0 mm
02:00 AM 76.4°F24.7°C 71.2°F21.8°C 84% 3.5 mph S5.6 kmh S 8.1 mph13.0 kmh 29.77 in1008.1 mb - 0.00 in0.0 mm 0.00 in0.0 mm
01:50 AM 76.6°F24.8°C 71.4°F21.9°C 84% 4.6 mph SSE7.4 kmh SSE 8.1 mph13.0 kmh 29.76 in1007.8 mb - 0.00 in0.0 mm 0.00 in0.0 mm
01:45 AM 76.6°F24.8°C 71.0°F21.7°C 83% 3.5 mph SSE5.6 kmh SSE 5.8 mph9.3 kmh 29.76 in1007.8 mb - 0.00 in0.0 mm 0.00 in0.0 mm
01:40 AM 76.7°F24.8°C 71.1°F21.7°C 83% 4.6 mph SSE7.4 kmh SSE 6.9 mph11.1 kmh 29.77 in1008.1 mb - 0.00 in0.0 mm 0.00 in0.0 mm
01:30 AM 76.8°F24.9°C 71.2°F21.8°C 83% 3.5 mph SE5.6 kmh SE 4.6 mph7.4 kmh 29.77 in1008.1 mb - 0.00 in0.0 mm 0.00 in0.0 mm
01:20 AM 76.9°F24.9°C 71.0°F21.7°C 82% 3.5 mph SE5.6 kmh SE 4.6 mph7.4 kmh 29.77 in1008.1 mb - 0.00 in0.0 mm 0.00 in0.0 mm
01:15 AM 77.0°F25.0°C 71.1°F21.7°C 82% 3.5 mph SSE5.6 kmh SSE 4.6 mph7.4 kmh 29.78 in1008.5 mb - 0.00 in0.0 mm 0.00 in0.0 mm
01:10 AM 77.0°F25.0°C 71.1°F21.7°C 82% 5.8 mph SE9.3 kmh SE 8.1 mph13.0 kmh 29.78 in1008.5 mb - 0.00 in0.0 mm 0.00 in0.0 mm
01:00 AM 77.0°F25.0°C 71.1°F21.7°C 82% 3.5 mph SE5.6 kmh SE 8.1 mph13.0 kmh 29.78 in1008.5 mb - 0.00 in0.0 mm 0.00 in0.0 mm
12:50 AM 77.1°F25.1°C 71.2°F21.8°C 82% 3.5 mph SE5.6 kmh SE 5.8 mph9.3 kmh 29.78 in1008.5 mb - 0.00 in0.0 mm 0.00 in0.0 mm
12:45 AM 77.2°F25.1°C 70.9°F21.6°C 81% 3.5 mph SSE5.6 kmh SSE 8.1 mph13.0 kmh 29.78 in1008.5 mb - 0.00 in0.0 mm 0.00 in0.0 mm
12:40 AM 77.4°F25.2°C 71.1°F21.7°C 81% 3.5 mph SE5.6 kmh SE 8.1 mph13.0 kmh 29.78 in1008.5 mb - 0.00 in0.0 mm 0.00 in0.0 mm
12:30 AM 77.6°F25.3°C 71.3°F21.8°C 81% 3.5 mph SE5.6 kmh SE 5.8 mph9.3 kmh 29.78 in1008.5 mb - 0.00 in0.0 mm 0.00 in0.0 mm
12:20 AM 77.7°F25.4°C 71.4°F21.9°C 81% 3.5 mph SE5.6 kmh SE 5.8 mph9.3 kmh 29.79 in1008.8 mb - 0.00 in0.0 mm 0.00 in0.0 mm
12:15 AM 77.8°F25.4°C 71.1°F21.7°C 80% 2.3 mph SE3.7 kmh SE 5.8 mph9.3 kmh 29.78 in1008.5 mb - 0.00 in0.0 mm 0.00 in0.0 mm
12:10 AM 77.9°F25.5°C 71.2°F21.8°C 80% 2.3 mph SE3.7 kmh SE 3.5 mph5.6 kmh 29.78 in1008.5 mb - 0.00 in0.0 mm 0.00 in0.0 mm
12:00 AM 78.0°F25.6°C 71.3°F21.8°C 80% 2.3 mph SSE3.7 kmh SSE 8.1 mph13.0 kmh 29.78 in1008.5 mb - 0.00 in0.0 mm 0.00 in0.0 mm